createdAt,value
2023-03-06T00:00:40.788Z,18.60
2023-03-06T00:03:19.034Z,19.20
2023-03-06T00:05:47.996Z,13.90
2023-03-06T00:08:17.159Z,21.90
2023-03-06T00:10:46.607Z,29.70
2023-03-06T00:13:19.199Z,24.50
2023-03-06T00:15:49.137Z,24.40
2023-03-06T00:18:17.704Z,26.20
2023-03-06T00:20:46.392Z,25.20
2023-03-06T00:23:15.759Z,19.20
2023-03-06T00:25:46.212Z,17.40
2023-03-06T00:28:16.096Z,17.90
2023-03-06T00:33:15.225Z,17.90
2023-03-06T00:35:43.868Z,18.20
2023-03-06T00:38:15.254Z,16.40
2023-03-06T00:40:43.956Z,16.40
2023-03-06T00:43:12.869Z,14.80
2023-03-06T00:45:42.175Z,16.90
2023-03-06T00:48:10.797Z,20.90
2023-03-06T00:50:40.514Z,18.40
2023-03-06T00:53:11.672Z,54.20
2023-03-06T00:55:40.259Z,56.40
2023-03-06T00:58:08.827Z,67.50
2023-03-06T01:00:38.586Z,57.80
2023-03-06T01:03:08.336Z,53.70
2023-03-06T01:05:37.850Z,42.30
2023-03-06T01:08:09.386Z,30.20
2023-03-06T01:10:39.924Z,22.10
2023-03-06T01:13:09.049Z,22.10
2023-03-06T01:15:37.672Z,18.00
2023-03-06T01:18:06.443Z,18.20
2023-03-06T01:20:38.214Z,19.80
2023-03-06T01:23:07.412Z,17.30
2023-03-06T01:25:36.028Z,19.90
2023-03-06T01:28:05.349Z,16.00
2023-03-06T01:30:34.217Z,17.40
2023-03-06T01:33:03.093Z,31.80
2023-03-06T01:35:32.435Z,21.30
2023-03-06T01:38:01.247Z,26.30
2023-03-06T01:40:35.639Z,16.50
2023-03-06T01:43:27.098Z,27.30
2023-03-06T01:46:17.840Z,30.70
2023-03-06T01:48:48.865Z,39.00
2023-03-06T01:51:17.659Z,38.90
2023-03-06T01:53:47.643Z,44.40
2023-03-06T01:58:46.537Z,23.80
2023-03-06T02:01:15.996Z,25.20
2023-03-06T02:03:47.933Z,20.90
2023-03-06T02:06:20.037Z,19.90
2023-03-06T02:08:52.368Z,16.80
2023-03-06T02:11:23.867Z,24.90
2023-03-06T02:13:55.366Z,26.40
2023-03-06T02:16:29.983Z,22.50
2023-03-06T02:19:02.484Z,18.60
2023-03-06T02:21:34.468Z,42.50
2023-03-06T02:24:30.050Z,44.70
2023-03-06T02:27:01.158Z,27.70
2023-03-06T02:29:31.435Z,29.90
2023-03-06T02:32:02.143Z,22.80
2023-03-06T02:34:30.852Z,25.40
2023-03-06T02:37:05.874Z,19.60
2023-03-06T02:39:39.724Z,23.90
2023-03-06T02:42:09.037Z,18.70
2023-03-06T02:44:37.993Z,20.60
2023-03-06T02:47:08.063Z,16.00
2023-03-06T02:52:08.066Z,17.90
2023-03-06T02:54:36.749Z,22.30
2023-03-06T02:57:05.709Z,21.10
2023-03-06T02:59:35.145Z,18.70
2023-03-06T03:02:04.087Z,23.80
2023-03-06T03:04:33.056Z,19.40
2023-03-06T03:07:02.710Z,18.00
2023-03-06T03:09:37.516Z,16.70
2023-03-06T03:12:07.551Z,14.10
2023-03-06T03:14:36.255Z,14.10
2023-03-06T03:17:05.458Z,13.40
2023-03-06T03:19:34.797Z,15.70
2023-03-06T03:22:03.450Z,14.80
2023-03-06T03:24:32.467Z,17.20
2023-03-06T03:27:02.958Z,16.20
2023-03-06T03:29:32.632Z,16.00
2023-03-06T03:32:01.829Z,12.90
2023-03-06T03:34:30.982Z,12.70
2023-03-06T03:36:59.604Z,13.70
2023-03-06T03:39:28.560Z,10.90
2023-03-06T03:41:59.108Z,11.50
2023-03-06T03:44:28.369Z,10.70
2023-03-06T03:46:57.791Z,10.70
2023-03-06T03:49:26.797Z,13.10
2023-03-06T03:51:55.665Z,12.90
2023-03-06T03:54:25.076Z,15.20
2023-03-06T03:56:54.489Z,15.60
2023-03-06T03:59:27.195Z,13.80
2023-03-06T04:02:05.966Z,16.30
2023-03-06T04:04:39.108Z,13.60
2023-03-06T04:09:38.282Z,15.60
2023-03-06T04:12:08.319Z,14.60
2023-03-06T04:14:38.308Z,14.30
2023-03-06T04:17:07.224Z,13.60
2023-03-06T04:19:36.311Z,13.20
2023-03-06T04:22:05.353Z,15.70
2023-03-06T04:24:34.623Z,12.80
2023-03-06T04:27:04.514Z,18.20
2023-03-06T04:29:33.483Z,18.40
2023-03-06T04:32:02.868Z,17.60
2023-03-06T04:34:32.122Z,13.60
2023-03-06T04:37:01.204Z,11.50
2023-03-06T04:39:30.377Z,15.10
2023-03-06T04:41:59.314Z,15.90
2023-03-06T04:44:28.688Z,13.40
2023-03-06T04:46:58.682Z,17.60
2023-03-06T04:49:27.542Z,15.20
2023-03-06T04:51:56.441Z,15.10
2023-03-06T04:54:25.125Z,15.90
2023-03-06T04:56:53.989Z,12.70
2023-03-06T04:59:23.033Z,13.80
2023-03-06T05:01:51.962Z,13.90
2023-03-06T05:04:21.305Z,12.80
2023-03-06T05:06:50.192Z,11.80
2023-03-06T05:09:18.746Z,11.30
2023-03-06T05:11:47.958Z,11.70
2023-03-06T05:14:16.645Z,12.70
2023-03-06T05:16:47.680Z,10.80
2023-03-06T05:19:17.011Z,11.10
2023-03-06T05:21:45.686Z,9.40
2023-03-06T05:24:14.262Z,16.40
2023-03-06T05:26:43.565Z,13.20
2023-03-06T05:29:12.175Z,14.20
2023-03-06T05:31:40.756Z,12.30
2023-03-06T05:34:13.856Z,14.30
2023-03-06T05:36:43.206Z,14.70
2023-03-06T05:39:11.965Z,18.20
2023-03-06T05:41:40.902Z,12.50
2023-03-06T05:44:09.908Z,13.80
2023-03-06T05:46:38.813Z,14.10
2023-03-06T05:49:07.589Z,16.00
2023-03-06T05:51:36.477Z,15.00
2023-03-06T05:54:05.040Z,16.00
2023-03-06T05:56:33.776Z,14.70
2023-03-06T05:59:03.520Z,13.80
2023-03-06T06:01:32.146Z,14.40
2023-03-06T06:04:01.228Z,17.20
2023-03-06T06:06:30.405Z,17.70
2023-03-06T06:08:58.952Z,15.50
2023-03-06T06:11:27.809Z,13.60
2023-03-06T06:13:56.772Z,11.70
2023-03-06T06:16:25.284Z,11.60
2023-03-06T06:18:54.282Z,12.40
2023-03-06T06:21:23.175Z,11.70
2023-03-06T06:23:51.805Z,13.00
2023-03-06T06:26:20.537Z,12.00
2023-03-06T06:28:49.758Z,12.20
2023-03-06T06:31:19.103Z,14.20
2023-03-06T06:33:47.926Z,13.90
2023-03-06T06:36:19.676Z,12.60
2023-03-06T06:38:50.238Z,12.80
2023-03-06T06:41:53.084Z,15.00
2023-03-06T06:44:11.790Z,13.90
2023-03-06T06:49:30.438Z,27.80
2023-03-06T06:51:59.757Z,49.20
2023-03-06T06:54:28.485Z,48.30
2023-03-06T06:56:57.184Z,34.30
2023-03-06T06:59:26.248Z,28.40
2023-03-06T07:01:54.810Z,21.00
2023-03-06T07:04:24.055Z,19.70
2023-03-06T07:06:59.054Z,125.60
2023-03-06T07:09:28.375Z,48.40
2023-03-06T07:11:58.481Z,43.70
2023-03-06T07:14:27.598Z,28.40
2023-03-06T07:16:56.738Z,20.40
2023-03-06T07:19:25.721Z,21.50
2023-03-06T07:21:54.394Z,39.70
2023-03-06T07:24:23.699Z,47.00
2023-03-06T07:26:52.741Z,21.70
2023-03-06T07:29:21.351Z,25.50
2023-03-06T07:31:50.513Z,23.30
2023-03-06T07:34:19.366Z,24.00
2023-03-06T07:36:47.950Z,22.70
2023-03-06T07:39:17.041Z,27.40
2023-03-06T07:41:46.355Z,42.50
2023-03-06T07:44:14.922Z,36.20
2023-03-06T07:46:44.067Z,33.80
2023-03-06T07:49:13.661Z,27.40
2023-03-06T07:51:42.376Z,29.70
2023-03-06T07:54:11.552Z,29.10
2023-03-06T07:56:40.509Z,30.30
2023-03-06T07:59:11.103Z,28.90
2023-03-06T08:01:40.695Z,23.90
2023-03-06T08:04:09.671Z,24.30
2023-03-06T08:06:38.269Z,28.20
2023-03-06T08:09:07.415Z,27.00
2023-03-06T08:11:36.701Z,26.30
2023-03-06T08:14:34.504Z,21.50
2023-03-06T08:17:06.562Z,23.50
2023-03-06T08:19:35.483Z,24.40
2023-03-06T08:22:06.250Z,25.00
2023-03-06T08:24:35.177Z,26.80
2023-03-06T08:27:03.912Z,21.60
2023-03-06T08:29:32.683Z,25.20
2023-03-06T08:32:01.563Z,23.30
2023-03-06T08:34:30.338Z,24.40
2023-03-06T08:36:59.094Z,24.70
2023-03-06T08:39:28.168Z,29.50
2023-03-06T08:41:56.780Z,28.40
2023-03-06T08:44:25.428Z,26.60
2023-03-06T08:46:54.279Z,39.00
2023-03-06T08:49:22.879Z,35.80
2023-03-06T08:51:51.523Z,29.70
2023-03-06T08:54:20.747Z,31.00
2023-03-06T08:56:49.387Z,39.40
2023-03-06T08:59:18.298Z,31.80
2023-03-06T09:01:47.392Z,31.90
2023-03-06T09:04:15.966Z,28.50
2023-03-06T09:06:45.700Z,39.10
2023-03-06T09:09:14.762Z,31.50
2023-03-06T09:11:43.418Z,31.60
2023-03-06T09:14:12.249Z,26.90
2023-03-06T09:16:41.623Z,25.40
2023-03-06T09:19:10.371Z,27.70
2023-03-06T09:21:48.823Z,45.30
2023-03-06T09:24:24.159Z,31.10
2023-03-06T09:26:52.900Z,79.00
2023-03-06T09:29:22.181Z,61.90
2023-03-06T09:31:51.058Z,92.20
2023-03-06T09:34:20.072Z,64.60
2023-03-06T09:36:56.917Z,35.10
2023-03-06T09:39:27.621Z,43.30
2023-03-06T09:41:58.505Z,34.40
2023-03-06T09:44:34.397Z,47.50
2023-03-06T09:47:45.878Z,55.90
2023-03-06T09:50:29.880Z,43.00
2023-03-06T09:53:20.461Z,99.70
2023-03-06T09:55:58.598Z,113.30
2023-03-06T09:58:30.054Z,165.90
2023-03-06T10:01:11.691Z,119.80
2023-03-06T10:03:54.959Z,94.40
2023-03-06T10:06:23.924Z,65.60
2023-03-06T10:09:13.524Z,58.10
2023-03-06T10:11:47.610Z,69.00
2023-03-06T10:14:40.617Z,48.00
2023-03-06T10:17:17.379Z,28.10
2023-03-06T10:19:49.698Z,20.80
2023-03-06T10:22:46.102Z,19.70
2023-03-06T10:25:24.733Z,21.10
2023-03-06T10:28:11.884Z,22.30
2023-03-06T10:30:43.657Z,18.70
2023-03-06T10:36:29.515Z,60.20
2023-03-06T10:38:59.227Z,87.90
2023-03-06T10:41:32.636Z,43.90
2023-03-06T10:44:01.380Z,24.20
2023-03-06T10:46:31.548Z,30.60
2023-03-06T10:49:23.728Z,45.10
2023-03-06T10:52:26.132Z,41.70
2023-03-06T10:55:24.015Z,59.20
2023-03-06T10:57:52.840Z,36.20
2023-03-06T11:00:32.172Z,37.10
2023-03-06T11:03:24.856Z,44.40
2023-03-06T11:06:02.703Z,69.70
2023-03-06T11:08:31.866Z,48.70
2023-03-06T11:11:07.515Z,60.70
2023-03-06T11:13:39.567Z,93.50
2023-03-06T11:16:19.346Z,115.40
2023-03-06T11:19:18.968Z,106.10
2023-03-06T11:22:20.467Z,99.40
2023-03-06T11:24:53.947Z,76.60
2023-03-06T11:27:35.034Z,79.30
2023-03-06T11:30:09.470Z,65.50
2023-03-06T11:32:46.666Z,88.50
2023-03-06T11:35:28.648Z,192.10
2023-03-06T11:38:27.317Z,45.90
2023-03-06T11:41:01.749Z,28.40
2023-03-06T11:43:35.430Z,36.60
2023-03-06T11:46:26.530Z,26.90
2023-03-06T11:49:10.500Z,37.90
2023-03-06T11:51:48.503Z,33.40
2023-03-06T11:54:17.417Z,35.20
2023-03-06T11:57:18.494Z,32.20
2023-03-06T12:00:17.684Z,36.00
2023-03-06T12:02:58.417Z,36.60
2023-03-06T12:05:32.206Z,28.20
2023-03-06T12:08:39.210Z,38.70
2023-03-06T12:11:26.746Z,51.60
2023-03-06T12:14:10.537Z,29.50
2023-03-06T12:16:39.737Z,31.80
2023-03-06T12:19:30.301Z,39.50
2023-03-06T12:22:14.234Z,55.80
2023-03-06T12:25:09.794Z,49.60
2023-03-06T12:28:15.411Z,62.00
2023-03-06T12:31:18.391Z,50.40
2023-03-06T12:34:26.193Z,32.40
2023-03-06T12:37:01.662Z,38.20
2023-03-06T12:40:07.144Z,27.20
2023-03-06T12:43:10.625Z,34.30
2023-03-06T12:45:41.293Z,34.90
2023-03-06T12:48:18.211Z,24.50
2023-03-06T12:50:48.457Z,27.60
2023-03-06T12:53:32.377Z,23.90
2023-03-06T12:56:02.952Z,31.30
2023-03-06T12:58:31.653Z,23.50
2023-03-06T13:01:20.560Z,22.70
2023-03-06T13:03:58.014Z,167.30
2023-03-06T13:07:04.771Z,43.40
2023-03-06T13:09:55.378Z,33.30
2023-03-06T13:12:42.899Z,29.90
2023-03-06T13:15:42.576Z,23.00
2023-03-06T13:18:23.742Z,21.40
2023-03-06T13:20:56.656Z,25.40
2023-03-06T13:23:34.740Z,27.70
2023-03-06T13:29:38.628Z,24.30
2023-03-06T13:32:18.739Z,28.50
2023-03-06T13:34:49.534Z,46.10
2023-03-06T13:37:18.901Z,34.30
2023-03-06T13:40:00.669Z,46.00
2023-03-06T13:42:37.474Z,65.40
2023-03-06T13:45:08.910Z,51.70
2023-03-06T13:48:22.643Z,43.80
2023-03-06T13:50:52.226Z,40.20
2023-03-06T13:53:33.782Z,32.70
2023-03-06T13:56:17.748Z,40.30
2023-03-06T13:59:00.815Z,67.30
2023-03-06T14:01:47.188Z,75.20
2023-03-06T14:04:33.129Z,67.30
2023-03-06T14:07:22.282Z,44.50
2023-03-06T14:10:21.502Z,31.90
2023-03-06T14:12:50.203Z,25.30
2023-03-06T14:15:26.504Z,45.90
2023-03-06T14:18:06.423Z,42.00
2023-03-06T14:20:39.671Z,36.10
2023-03-06T14:23:17.030Z,32.80
2023-03-06T14:25:47.633Z,38.70
2023-03-06T14:28:25.481Z,47.40
2023-03-06T14:30:56.261Z,35.10
2023-03-06T14:33:32.669Z,38.90
2023-03-06T14:36:04.565Z,22.10
2023-03-06T14:38:38.406Z,45.00
2023-03-06T14:41:12.386Z,35.70
2023-03-06T14:43:42.081Z,42.90
2023-03-06T14:46:22.488Z,30.80
2023-03-06T14:48:52.801Z,38.00
2023-03-06T14:54:01.314Z,29.80
2023-03-06T14:56:35.551Z,36.60
2023-03-06T14:59:22.673Z,34.20
2023-03-06T15:01:58.829Z,24.50
2023-03-06T15:04:47.284Z,29.50
2023-03-06T15:07:30.825Z,44.00
2023-03-06T15:10:00.944Z,47.40
2023-03-06T15:12:34.226Z,38.30
2023-03-06T15:15:11.429Z,78.00
2023-03-06T15:17:41.071Z,40.60
2023-03-06T15:20:47.264Z,48.20
2023-03-06T15:23:21.647Z,73.50
2023-03-06T15:25:56.850Z,173.80
2023-03-06T15:28:39.826Z,61.70
2023-03-06T15:31:13.326Z,55.90
2023-03-06T15:33:42.175Z,45.00
2023-03-06T15:36:21.835Z,55.10
2023-03-06T15:38:51.324Z,28.70
2023-03-06T15:41:29.032Z,32.90
2023-03-06T15:44:03.101Z,47.80
2023-03-06T15:46:32.125Z,55.30
2023-03-06T15:49:05.252Z,56.60
2023-03-06T15:51:34.338Z,103.50
2023-03-06T15:54:11.895Z,93.40
2023-03-06T15:56:45.334Z,39.90
2023-03-06T15:59:24.185Z,40.50
2023-03-06T16:01:53.769Z,36.40
2023-03-06T16:04:22.712Z,59.80
2023-03-06T16:06:51.376Z,55.30
2023-03-06T16:09:20.261Z,43.20
2023-03-06T16:11:49.269Z,34.10
2023-03-06T16:14:21.808Z,42.90
2023-03-06T16:16:54.471Z,43.80
2023-03-06T16:19:27.425Z,38.00
2023-03-06T16:21:57.328Z,32.10
2023-03-06T16:24:27.085Z,27.70
2023-03-06T16:26:59.259Z,42.10
2023-03-06T16:29:29.863Z,39.40
2023-03-06T16:31:59.313Z,34.70
2023-03-06T16:34:30.990Z,34.30
2023-03-06T16:36:59.855Z,45.50
2023-03-06T16:39:28.704Z,71.50
2023-03-06T16:41:57.519Z,68.10
2023-03-06T16:44:26.280Z,64.60
2023-03-06T16:46:54.889Z,54.40
2023-03-06T16:49:25.441Z,74.10
2023-03-06T16:51:54.986Z,84.60
2023-03-06T16:54:26.443Z,56.20
2023-03-06T16:56:57.896Z,64.60
2023-03-06T16:59:32.191Z,83.50
2023-03-06T17:02:33.161Z,96.50
2023-03-06T17:05:12.572Z,129.30
2023-03-06T17:11:16.978Z,58.20
2023-03-06T17:13:49.473Z,67.30
2023-03-06T17:20:13.334Z,45.10
2023-03-06T17:22:42.373Z,47.90
2023-03-06T17:25:11.854Z,160.10
2023-03-06T17:27:40.741Z,62.30
2023-03-06T17:30:13.568Z,133.70
2023-03-06T17:32:42.721Z,107.20
2023-03-06T17:35:11.619Z,190.90
2023-03-06T17:37:40.448Z,112.70
2023-03-06T17:40:10.677Z,48.20
2023-03-06T17:42:39.468Z,55.30
2023-03-06T17:45:12.152Z,75.70
2023-03-06T17:47:40.960Z,108.00
2023-03-06T17:50:13.593Z,149.90
2023-03-06T17:52:42.844Z,59.90
2023-03-06T17:55:11.673Z,94.80
2023-03-06T17:57:42.755Z,65.50
2023-03-06T18:00:12.061Z,59.90
2023-03-06T18:02:57.224Z,88.30
2023-03-06T18:05:46.314Z,75.50
2023-03-06T18:08:39.229Z,75.10
2023-03-06T18:11:25.243Z,187.10
2023-03-06T18:14:15.935Z,190.00
2023-03-06T18:17:08.382Z,114.40
2023-03-06T18:22:42.827Z,84.20
2023-03-06T18:25:38.806Z,81.80
2023-03-06T18:28:35.200Z,66.00
2023-03-06T18:31:34.394Z,56.00
2023-03-06T18:34:23.535Z,51.00
2023-03-06T18:37:25.155Z,61.40
2023-03-06T18:40:22.367Z,127.60
2023-03-06T18:43:06.914Z,107.60
2023-03-06T18:45:36.434Z,94.90
2023-03-06T18:48:06.412Z,63.70
2023-03-06T18:50:39.136Z,69.20
2023-03-06T18:53:08.509Z,65.30
2023-03-06T18:55:37.686Z,60.60
2023-03-06T18:58:06.655Z,48.30
2023-03-06T19:00:35.889Z,35.10
2023-03-06T19:03:04.705Z,51.50
2023-03-06T19:05:33.815Z,47.00
2023-03-06T19:08:03.407Z,80.20
2023-03-06T19:10:38.417Z,64.70
2023-03-06T19:13:08.519Z,81.40
2023-03-06T19:15:48.592Z,49.80
2023-03-06T19:18:18.309Z,54.10
2023-03-06T19:20:46.924Z,43.20
2023-03-06T19:23:15.849Z,45.20
2023-03-06T19:25:55.069Z,42.90
2023-03-06T19:28:23.849Z,307.20
2023-03-06T19:30:53.302Z,126.80
2023-03-06T19:33:22.042Z,85.80
2023-03-06T19:35:51.354Z,72.60
2023-03-06T19:38:20.575Z,51.30
2023-03-06T19:40:51.793Z,59.00
2023-03-06T19:43:20.984Z,43.10
2023-03-06T19:45:49.655Z,49.50
2023-03-06T19:48:18.535Z,51.70
2023-03-06T19:50:47.769Z,43.60
2023-03-06T19:53:17.166Z,45.40
2023-03-06T19:55:46.087Z,52.70
2023-03-06T19:58:15.665Z,49.30
2023-03-06T20:00:45.074Z,49.50
2023-03-06T20:03:17.611Z,41.00
2023-03-06T20:05:50.756Z,45.70
2023-03-06T20:08:19.302Z,64.40
2023-03-06T20:10:48.462Z,55.90
2023-03-06T20:13:18.861Z,51.90
2023-03-06T20:15:47.477Z,42.10
2023-03-06T20:18:16.683Z,63.20
2023-03-06T20:20:45.982Z,123.80
2023-03-06T20:23:16.578Z,64.20
2023-03-06T20:25:48.754Z,123.30
2023-03-06T20:28:17.316Z,89.60
2023-03-06T20:30:46.452Z,98.60
2023-03-06T20:33:17.122Z,96.20
2023-03-06T20:35:45.782Z,81.10
2023-03-06T20:38:14.778Z,68.70
2023-03-06T20:40:44.547Z,67.30
2023-03-06T20:43:13.333Z,65.40
2023-03-06T20:45:41.918Z,64.90
2023-03-06T20:48:10.968Z,62.90
2023-03-06T20:50:39.559Z,67.00
2023-03-06T20:53:08.171Z,67.20
2023-03-06T20:55:38.301Z,99.30
2023-03-06T20:58:07.174Z,98.20
2023-03-06T21:00:36.102Z,181.00
2023-03-06T21:03:06.074Z,143.00
2023-03-06T21:05:34.988Z,134.60
2023-03-06T21:08:03.622Z,82.50
2023-03-06T21:10:33.094Z,75.90
2023-03-06T21:13:01.636Z,63.50
2023-03-06T21:15:31.275Z,77.70
2023-03-06T21:18:00.312Z,57.60
2023-03-06T21:20:28.840Z,56.20
2023-03-06T21:22:58.061Z,52.90
2023-03-06T21:25:27.588Z,66.30
2023-03-06T21:27:56.657Z,60.60
2023-03-06T21:30:25.505Z,66.50
2023-03-06T21:32:54.858Z,62.20
2023-03-06T21:35:23.486Z,88.60
2023-03-06T21:37:52.197Z,83.20
2023-03-06T21:40:21.642Z,54.30
2023-03-06T21:42:50.173Z,49.50
2023-03-06T21:45:19.145Z,65.70
2023-03-06T21:47:49.349Z,43.60
2023-03-06T21:50:18.272Z,57.10
2023-03-06T21:52:46.852Z,50.00
2023-03-06T21:55:16.442Z,47.50
2023-03-06T21:57:50.509Z,48.90
2023-03-06T22:00:20.563Z,46.10
2023-03-06T22:02:49.768Z,43.80
2023-03-06T22:05:18.928Z,45.00
2023-03-06T22:07:47.827Z,43.70
2023-03-06T22:10:16.457Z,46.20
2023-03-06T22:12:46.908Z,51.00
2023-03-06T22:15:16.196Z,54.10
2023-03-06T22:17:45.629Z,49.10
2023-03-06T22:20:14.288Z,54.80
2023-03-06T22:22:44.384Z,55.20
2023-03-06T22:25:15.147Z,45.90
2023-03-06T22:27:43.796Z,55.70
2023-03-06T22:30:13.662Z,62.20
2023-03-06T22:32:42.563Z,64.10
2023-03-06T22:35:11.826Z,61.70
2023-03-06T22:37:40.692Z,62.80
2023-03-06T22:40:10.164Z,63.20
2023-03-06T22:42:39.011Z,93.00
2023-03-06T22:45:08.895Z,95.70
2023-03-06T22:47:38.186Z,82.60
2023-03-06T22:50:08.722Z,139.50
2023-03-06T22:55:06.917Z,65.50
2023-03-06T22:57:36.330Z,54.70
2023-03-06T23:00:05.376Z,57.70
2023-03-06T23:02:35.421Z,44.60
2023-03-06T23:05:04.834Z,59.70
2023-03-06T23:07:33.742Z,93.20
2023-03-06T23:10:07.073Z,150.20
2023-03-06T23:12:54.783Z,67.20
2023-03-06T23:15:41.924Z,64.00
2023-03-06T23:18:30.396Z,61.30
2023-03-06T23:21:19.495Z,58.30
2023-03-06T23:24:08.055Z,55.60
2023-03-06T23:26:37.406Z,57.00
2023-03-06T23:29:06.059Z,40.10
2023-03-06T23:31:35.174Z,55.10
2023-03-06T23:34:04.341Z,59.70
2023-03-06T23:36:32.940Z,55.00
2023-03-06T23:39:02.238Z,66.00
2023-03-06T23:41:31.210Z,55.40
2023-03-06T23:44:00.130Z,47.60
2023-03-06T23:46:28.893Z,50.10
2023-03-06T23:48:57.483Z,44.00
2023-03-06T23:51:26.398Z,40.10
2023-03-06T23:53:59.073Z,60.60
2023-03-06T23:56:28.855Z,69.20
2023-03-06T23:58:57.605Z,96.80
